createdAt,value
2019-01-25T00:00:32.445Z,52.23
2019-01-25T00:03:09.840Z,47.10
2019-01-25T00:05:35.690Z,53.67
2019-01-25T00:08:06.991Z,48.80
2019-01-25T00:10:37.779Z,51.57
2019-01-25T00:13:09.314Z,52.77
2019-01-25T00:15:41.713Z,50.40
2019-01-25T00:18:12.522Z,49.60
2019-01-25T00:20:43.301Z,51.53
2019-01-25T00:23:14.349Z,52.83
2019-01-25T00:25:45.052Z,49.27
2019-01-25T00:28:15.788Z,46.97
2019-01-25T00:30:47.073Z,53.70
2019-01-25T00:33:17.770Z,46.27
2019-01-25T00:35:48.553Z,49.70
2019-01-25T00:38:19.246Z,53.17
2019-01-25T00:40:49.989Z,49.80
2019-01-25T00:43:20.748Z,51.30
2019-01-25T00:45:51.504Z,51.43
2019-01-25T00:48:22.234Z,49.80
2019-01-25T00:50:52.970Z,52.23
2019-01-25T00:53:23.708Z,51.60
2019-01-25T00:55:54.526Z,48.67
2019-01-25T00:58:25.336Z,47.17
2019-01-25T01:00:56.127Z,46.93
2019-01-25T01:03:26.863Z,51.50
2019-01-25T01:05:57.620Z,44.53
2019-01-25T01:08:28.486Z,46.57
2019-01-25T01:10:59.246Z,41.77
2019-01-25T01:13:30.036Z,46.37
2019-01-25T01:16:00.773Z,45.00
2019-01-25T01:18:31.801Z,40.00
2019-01-25T01:21:02.581Z,47.60
2019-01-25T01:23:33.671Z,43.20
2019-01-25T01:26:04.534Z,46.90
2019-01-25T01:28:36.080Z,44.97
2019-01-25T01:31:07.618Z,45.83
2019-01-25T01:33:39.287Z,47.13
2019-01-25T01:36:10.131Z,46.00
2019-01-25T01:38:41.274Z,43.67
2019-01-25T01:41:11.961Z,50.83
2019-01-25T01:43:42.741Z,49.70
2019-01-25T01:46:13.674Z,45.50
2019-01-25T01:48:45.177Z,51.33
2019-01-25T01:51:16.304Z,47.43
2019-01-25T01:53:46.965Z,48.33
2019-01-25T01:56:17.705Z,53.03
2019-01-25T01:58:48.406Z,50.33
2019-01-25T02:01:20.925Z,51.60
2019-01-25T02:03:51.566Z,51.73
2019-01-25T02:06:22.324Z,53.80
2019-01-25T02:08:53.002Z,48.27
2019-01-25T02:11:23.738Z,51.37
2019-01-25T02:13:54.432Z,49.93
2019-01-25T02:16:25.126Z,51.73
2019-01-25T02:18:55.817Z,56.37
2019-01-25T02:21:26.569Z,58.33
2019-01-25T02:23:57.251Z,50.03
2019-01-25T02:26:27.918Z,57.93
2019-01-25T02:28:58.734Z,52.33
2019-01-25T02:31:29.419Z,58.60
2019-01-25T02:34:00.722Z,57.23
2019-01-25T02:36:31.487Z,53.57
2019-01-25T02:39:02.382Z,57.57
2019-01-25T02:41:33.228Z,58.47
2019-01-25T02:44:03.988Z,57.47
2019-01-25T02:46:34.787Z,63.80
2019-01-25T02:49:05.886Z,59.90
2019-01-25T02:51:37.385Z,56.60
2019-01-25T02:54:08.105Z,60.63
2019-01-25T02:56:39.506Z,60.20
2019-01-25T02:59:10.205Z,54.23
2019-01-25T03:01:41.167Z,50.77
2019-01-25T03:04:12.227Z,53.03
2019-01-25T03:06:46.367Z,54.40
2019-01-25T03:09:17.146Z,55.23
2019-01-25T03:11:47.896Z,56.33
2019-01-25T03:14:18.592Z,58.40
2019-01-25T03:16:49.312Z,57.80
2019-01-25T03:19:19.979Z,58.13
2019-01-25T03:21:50.732Z,55.97
2019-01-25T03:24:21.413Z,59.60
2019-01-25T03:26:52.241Z,59.70
2019-01-25T03:29:22.925Z,57.67
2019-01-25T03:31:53.654Z,59.40
2019-01-25T03:34:24.409Z,52.30
2019-01-25T03:36:55.210Z,61.57
2019-01-25T03:39:25.890Z,56.70
2019-01-25T03:41:56.641Z,58.00
2019-01-25T03:44:27.322Z,53.53
2019-01-25T03:46:58.004Z,57.50
2019-01-25T03:49:28.679Z,55.27
2019-01-25T03:51:59.402Z,57.03
2019-01-25T03:54:30.087Z,58.70
2019-01-25T03:57:00.862Z,52.60
2019-01-25T03:59:31.626Z,56.27
2019-01-25T04:02:02.338Z,55.57
2019-01-25T04:04:33.070Z,57.77
2019-01-25T04:07:03.787Z,61.53
2019-01-25T04:09:34.688Z,53.73
2019-01-25T04:12:05.888Z,61.03
2019-01-25T04:14:36.676Z,58.40
2019-01-25T04:17:07.486Z,59.83
2019-01-25T04:19:47.504Z,54.70
2019-01-25T04:22:18.276Z,55.80
2019-01-25T04:24:49.434Z,55.93
2019-01-25T04:27:20.090Z,54.63
2019-01-25T04:29:50.931Z,54.63
2019-01-25T04:32:21.561Z,52.53
2019-01-25T04:34:52.483Z,58.80
2019-01-25T04:37:23.277Z,54.27
2019-01-25T04:39:54.053Z,55.67
2019-01-25T04:42:24.716Z,53.00
2019-01-25T04:44:55.414Z,55.73
2019-01-25T04:47:30.713Z,56.83
2019-01-25T04:50:01.439Z,52.10
2019-01-25T04:52:32.144Z,52.80
2019-01-25T04:55:28.562Z,58.67
2019-01-25T04:58:13.181Z,61.63
2019-01-25T05:00:44.904Z,59.50
2019-01-25T05:03:17.404Z,58.50
2019-01-25T05:05:48.605Z,58.73
2019-01-25T05:08:21.524Z,60.30
2019-01-25T05:10:52.618Z,58.00
2019-01-25T05:13:23.384Z,59.73
2019-01-25T05:15:54.067Z,59.00
2019-01-25T05:18:24.748Z,62.37
2019-01-25T05:20:55.441Z,55.47
2019-01-25T05:23:26.138Z,58.63
2019-01-25T05:25:56.855Z,56.33
2019-01-25T05:28:27.619Z,57.80
2019-01-25T05:31:07.494Z,57.33
2019-01-25T05:33:38.898Z,56.73
2019-01-25T05:36:09.608Z,54.87
2019-01-25T05:38:47.280Z,51.30
2019-01-25T05:41:17.910Z,61.83
2019-01-25T05:43:49.404Z,56.50
2019-01-25T05:46:20.100Z,54.37
2019-01-25T05:48:50.853Z,55.43
2019-01-25T05:51:22.349Z,60.83
2019-01-25T05:53:54.354Z,58.40
2019-01-25T05:56:30.261Z,53.40
2019-01-25T05:59:01.039Z,60.93
2019-01-25T06:01:31.828Z,55.67
2019-01-25T06:04:02.549Z,61.67
2019-01-25T06:06:33.240Z,60.57
2019-01-25T06:09:05.042Z,52.33
2019-01-25T06:11:38.143Z,53.43
2019-01-25T06:14:10.440Z,60.73
2019-01-25T06:16:42.884Z,60.33
2019-01-25T06:19:16.089Z,50.73
2019-01-25T06:21:48.066Z,59.97
2019-01-25T06:24:18.810Z,55.17
2019-01-25T06:26:49.838Z,55.43
2019-01-25T06:29:20.919Z,54.40
2019-01-25T06:31:51.712Z,57.03
2019-01-25T06:34:22.528Z,56.37
2019-01-25T06:36:53.187Z,57.30
2019-01-25T06:39:33.543Z,53.67
2019-01-25T06:42:05.140Z,61.63
2019-01-25T06:44:36.091Z,64.87
2019-01-25T06:47:06.846Z,60.93
2019-01-25T06:49:37.625Z,54.57
2019-01-25T06:52:11.563Z,56.63
2019-01-25T06:54:44.836Z,58.57
2019-01-25T06:57:26.664Z,65.00
2019-01-25T06:59:57.373Z,60.63
2019-01-25T07:02:32.643Z,57.77
2019-01-25T07:05:03.468Z,60.60
2019-01-25T07:07:37.032Z,56.27
2019-01-25T07:10:13.776Z,59.13
2019-01-25T07:12:46.778Z,56.63
2019-01-25T07:15:21.083Z,54.97
2019-01-25T07:17:52.781Z,60.83
2019-01-25T07:20:23.504Z,63.93
2019-01-25T07:22:54.831Z,59.17
2019-01-25T07:25:25.530Z,55.03
2019-01-25T07:27:56.426Z,60.30
2019-01-25T07:30:27.390Z,55.97
2019-01-25T07:32:58.158Z,63.80
2019-01-25T07:35:28.862Z,57.83
2019-01-25T07:38:00.004Z,53.10
2019-01-25T07:40:30.793Z,59.07
2019-01-25T07:43:01.653Z,61.23
2019-01-25T07:45:32.517Z,64.30
2019-01-25T07:48:03.463Z,59.70
2019-01-25T07:50:34.203Z,58.30
2019-01-25T07:53:05.069Z,67.47
2019-01-25T07:55:35.768Z,59.77
2019-01-25T07:58:06.858Z,61.60
2019-01-25T08:00:37.810Z,59.93
2019-01-25T08:03:09.088Z,63.60
2019-01-25T08:05:39.968Z,54.40
2019-01-25T08:08:10.638Z,60.20
2019-01-25T08:10:41.358Z,57.83
2019-01-25T08:13:12.123Z,59.20
2019-01-25T08:15:43.467Z,55.57
2019-01-25T08:18:14.414Z,59.10
2019-01-25T08:20:45.234Z,58.70
2019-01-25T08:23:18.077Z,58.77
2019-01-25T08:25:49.201Z,59.90
2019-01-25T08:28:19.989Z,59.07
2019-01-25T08:30:51.557Z,58.67
2019-01-25T08:33:22.437Z,62.93
2019-01-25T08:35:53.543Z,58.17
2019-01-25T08:38:24.268Z,59.53
2019-01-25T08:40:55.239Z,66.67
2019-01-25T08:43:27.260Z,61.63
2019-01-25T08:45:58.081Z,57.00
2019-01-25T08:48:29.274Z,60.13
2019-01-25T08:51:01.264Z,57.87
2019-01-25T08:53:31.980Z,66.53
2019-01-25T08:56:02.679Z,65.90
2019-01-25T08:58:34.227Z,61.33
2019-01-25T09:01:07.036Z,59.17
2019-01-25T09:03:38.059Z,84.13
2019-01-25T09:06:08.734Z,94.87
2019-01-25T09:08:40.306Z,80.90
2019-01-25T09:11:11.062Z,70.47
2019-01-25T09:13:42.162Z,71.73
2019-01-25T09:16:12.909Z,75.20
2019-01-25T09:18:44.367Z,88.30
2019-01-25T09:21:15.254Z,63.93
2019-01-25T09:23:45.946Z,65.30
2019-01-25T09:26:16.775Z,63.63
2019-01-25T09:28:47.613Z,56.37
2019-01-25T09:31:18.708Z,62.57
2019-01-25T09:33:49.515Z,60.17
2019-01-25T09:36:20.261Z,65.03
2019-01-25T09:38:51.635Z,62.67
2019-01-25T09:41:22.597Z,59.30
2019-01-25T09:43:53.674Z,66.10
2019-01-25T09:46:24.401Z,61.73
2019-01-25T09:48:55.677Z,63.83
2019-01-25T09:51:26.539Z,54.17
2019-01-25T09:53:57.332Z,55.40
2019-01-25T09:56:28.292Z,59.90
2019-01-25T09:58:59.720Z,64.53
2019-01-25T10:01:30.412Z,61.87
2019-01-25T10:04:01.183Z,60.40
2019-01-25T10:06:32.042Z,65.80
2019-01-25T10:09:21.796Z,62.37
2019-01-25T10:11:53.611Z,69.03
2019-01-25T10:14:24.310Z,64.67
2019-01-25T10:16:56.491Z,64.33
2019-01-25T10:19:27.208Z,54.67
2019-01-25T10:21:57.987Z,69.90
2019-01-25T10:24:28.757Z,56.13
2019-01-25T10:27:05.521Z,61.13
2019-01-25T10:29:36.217Z,57.27
2019-01-25T10:32:08.260Z,58.73
2019-01-25T10:34:38.949Z,51.77
2019-01-25T10:37:10.000Z,52.97
2019-01-25T10:39:42.520Z,58.43
2019-01-25T10:42:13.340Z,53.40
2019-01-25T10:44:45.336Z,55.33
2019-01-25T10:47:16.068Z,54.87
2019-01-25T10:49:48.652Z,54.23
2019-01-25T10:52:19.439Z,54.83
2019-01-25T10:54:50.451Z,52.20
2019-01-25T10:57:22.101Z,53.83
2019-01-25T10:59:52.788Z,49.07
2019-01-25T11:02:23.464Z,50.73
2019-01-25T11:04:54.120Z,48.40
2019-01-25T11:07:24.825Z,47.67
2019-01-25T11:09:55.677Z,51.70
2019-01-25T11:12:26.420Z,52.30
2019-01-25T11:14:57.792Z,50.33
2019-01-25T11:17:28.428Z,53.80
2019-01-25T11:19:59.624Z,46.30
2019-01-25T11:22:30.447Z,50.40
2019-01-25T11:25:01.374Z,48.50
2019-01-25T11:27:32.024Z,49.17
2019-01-25T11:30:02.680Z,51.23
2019-01-25T11:32:33.344Z,45.60
2019-01-25T11:35:05.099Z,49.17
2019-01-25T11:37:35.880Z,48.83
2019-01-25T11:40:13.800Z,56.33
2019-01-25T11:42:48.143Z,54.83
2019-01-25T11:45:18.931Z,52.43
2019-01-25T11:47:50.073Z,54.30
2019-01-25T11:50:21.168Z,54.40
2019-01-25T11:52:52.006Z,49.77
2019-01-25T11:55:22.704Z,55.67
2019-01-25T11:57:53.398Z,54.73
2019-01-25T12:00:26.828Z,45.43
2019-01-25T12:02:58.060Z,48.37
2019-01-25T12:05:29.532Z,54.63
2019-01-25T12:08:01.056Z,53.97
2019-01-25T12:10:32.455Z,48.90
2019-01-25T12:13:03.819Z,51.83
2019-01-25T12:15:35.131Z,50.57
2019-01-25T12:18:07.325Z,47.93
2019-01-25T12:20:39.031Z,55.17
2019-01-25T12:23:10.188Z,46.60
2019-01-25T12:25:41.126Z,51.47
2019-01-25T12:28:12.097Z,47.07
2019-01-25T12:30:43.709Z,48.77
2019-01-25T12:33:16.980Z,49.27
2019-01-25T12:35:47.765Z,49.03
2019-01-25T12:38:21.873Z,49.67
2019-01-25T12:40:52.951Z,53.23
2019-01-25T12:43:24.438Z,53.43
2019-01-25T12:45:55.511Z,50.43
2019-01-25T12:48:26.803Z,56.77
2019-01-25T12:51:25.680Z,58.83
2019-01-25T12:53:56.714Z,53.27
2019-01-25T12:56:27.658Z,55.10
2019-01-25T12:58:58.788Z,53.30
2019-01-25T13:01:34.980Z,52.77
2019-01-25T13:04:04.919Z,55.20
2019-01-25T13:06:35.935Z,53.93
2019-01-25T13:09:14.786Z,60.83
2019-01-25T13:11:49.402Z,60.13
2019-01-25T13:14:20.485Z,70.90
2019-01-25T13:16:51.475Z,67.83
2019-01-25T13:19:22.522Z,78.63
2019-01-25T13:21:54.075Z,60.43
2019-01-25T13:24:25.292Z,59.23
2019-01-25T13:26:56.488Z,58.23
2019-01-25T13:29:33.377Z,57.87
2019-01-25T13:32:05.034Z,60.77
2019-01-25T13:34:43.452Z,57.93
2019-01-25T13:37:14.562Z,61.73
2019-01-25T13:39:45.884Z,56.83
2019-01-25T13:42:21.350Z,56.40
2019-01-25T13:44:52.437Z,63.20
2019-01-25T13:47:23.427Z,58.70
2019-01-25T13:49:54.602Z,58.30
2019-01-25T13:52:25.654Z,61.60
2019-01-25T13:55:03.251Z,59.77
2019-01-25T13:57:35.340Z,60.77
2019-01-25T14:00:28.177Z,55.30
2019-01-25T14:02:59.803Z,58.43
2019-01-25T14:05:35.783Z,58.37
2019-01-25T14:08:07.564Z,63.07
2019-01-25T14:10:38.928Z,61.30
2019-01-25T14:13:10.743Z,62.63
2019-01-25T14:15:43.156Z,64.37
2019-01-25T14:18:13.963Z,62.90
2019-01-25T14:20:45.060Z,62.53
2019-01-25T14:23:16.482Z,56.60
2019-01-25T14:25:47.504Z,59.03
2019-01-25T14:28:18.231Z,63.13
2019-01-25T14:30:49.289Z,62.03
2019-01-25T14:33:24.144Z,61.87
2019-01-25T14:35:55.806Z,58.30
2019-01-25T14:38:26.698Z,65.73
2019-01-25T14:40:57.498Z,65.23
2019-01-25T14:43:34.640Z,66.13
2019-01-25T14:46:05.719Z,58.40
2019-01-25T14:48:38.203Z,62.37
2019-01-25T14:51:09.416Z,59.43
2019-01-25T14:53:40.291Z,62.77
2019-01-25T14:56:12.134Z,61.00
2019-01-25T14:58:42.838Z,62.23
2019-01-25T15:01:16.149Z,58.97
2019-01-25T15:03:48.369Z,53.43
2019-01-25T15:06:19.709Z,52.67
2019-01-25T15:08:50.563Z,53.63
2019-01-25T15:11:23.270Z,60.37
2019-01-25T15:13:54.044Z,56.50
2019-01-25T15:16:24.752Z,57.60
2019-01-25T15:18:55.462Z,58.03
2019-01-25T15:21:27.559Z,59.67
2019-01-25T15:23:58.347Z,47.30
2019-01-25T15:26:31.217Z,48.63
2019-01-25T15:29:03.545Z,46.33
2019-01-25T15:31:34.303Z,48.30
2019-01-25T15:34:05.132Z,46.67
2019-01-25T15:36:35.911Z,45.73
2019-01-25T15:39:11.376Z,45.60
2019-01-25T15:41:42.274Z,53.23
2019-01-25T15:44:13.657Z,47.53
2019-01-25T15:46:44.404Z,65.50
2019-01-25T15:49:15.271Z,78.50
2019-01-25T15:51:46.304Z,65.33
2019-01-25T15:54:17.192Z,69.27
2019-01-25T15:56:48.020Z,73.63
2019-01-25T15:59:18.725Z,80.57
2019-01-25T16:01:49.884Z,85.20
2019-01-25T16:04:20.604Z,148.10
2019-01-25T16:06:51.499Z,130.83
2019-01-25T16:09:23.644Z,151.70
2019-01-25T16:11:54.567Z,374.37
2019-01-25T16:14:26.365Z,300.00
2019-01-25T16:16:57.407Z,374.13
2019-01-25T16:19:28.142Z,394.03
2019-01-25T16:21:59.113Z,277.83
2019-01-25T16:24:29.828Z,533.07
2019-01-25T16:27:00.724Z,359.60
2019-01-25T16:29:33.654Z,397.77
2019-01-25T16:32:04.392Z,350.33
2019-01-25T16:34:35.034Z,301.10
2019-01-25T16:37:05.842Z,187.57
2019-01-25T16:39:36.552Z,184.10
2019-01-25T16:42:07.283Z,140.90
2019-01-25T16:44:38.076Z,131.10
2019-01-25T16:47:10.347Z,91.90
2019-01-25T16:49:41.080Z,79.90
2019-01-25T16:52:12.662Z,74.93
2019-01-25T16:54:44.225Z,83.33
2019-01-25T16:57:14.979Z,66.80
2019-01-25T16:59:46.656Z,58.97
2019-01-25T17:02:17.444Z,56.70
2019-01-25T17:04:48.231Z,53.83
2019-01-25T17:07:18.987Z,58.37
2019-01-25T17:09:50.116Z,55.33
2019-01-25T17:12:21.754Z,61.80
2019-01-25T17:14:52.503Z,84.47
2019-01-25T17:17:24.638Z,191.10
2019-01-25T17:19:55.368Z,531.17
2019-01-25T17:22:26.100Z,520.80
2019-01-25T17:24:57.658Z,510.83
2019-01-25T17:27:28.444Z,656.93
2019-01-25T17:29:59.167Z,505.80
2019-01-25T17:32:29.841Z,533.40
2019-01-25T17:35:00.662Z,444.60
2019-01-25T17:37:31.331Z,481.70
2019-01-25T17:40:02.082Z,540.33
2019-01-25T17:42:32.865Z,646.03
2019-01-25T17:45:05.173Z,593.73
2019-01-25T17:47:36.018Z,537.57
2019-01-25T17:50:14.003Z,413.77
2019-01-25T17:52:44.866Z,363.27
2019-01-25T17:55:16.383Z,366.27
2019-01-25T17:57:47.577Z,249.87
2019-01-25T18:00:27.183Z,433.43
2019-01-25T18:02:59.657Z,319.87
2019-01-25T18:05:30.626Z,280.47
2019-01-25T18:08:01.489Z,252.90
2019-01-25T18:10:32.372Z,427.03
2019-01-25T18:13:03.215Z,231.37
2019-01-25T18:15:35.429Z,157.17
2019-01-25T18:18:07.122Z,127.43
2019-01-25T18:20:37.876Z,132.87
2019-01-25T18:23:09.055Z,150.23
2019-01-25T18:25:54.733Z,149.43
2019-01-25T18:28:33.028Z,132.63
2019-01-25T18:31:12.929Z,89.53
2019-01-25T18:33:45.436Z,101.60
2019-01-25T18:36:16.157Z,66.83
2019-01-25T18:38:46.884Z,68.93
2019-01-25T18:41:17.589Z,70.53
2019-01-25T18:43:48.249Z,63.93
2019-01-25T18:46:21.391Z,55.03
2019-01-25T18:48:53.415Z,56.83
2019-01-25T18:51:31.946Z,50.23
2019-01-25T18:54:01.523Z,48.83
2019-01-25T18:56:36.997Z,49.93
2019-01-25T18:59:07.927Z,52.40
2019-01-25T19:01:38.741Z,52.77
2019-01-25T19:04:09.912Z,50.10
2019-01-25T19:06:41.468Z,50.37
2019-01-25T19:09:12.882Z,52.17
2019-01-25T19:11:43.633Z,50.37
2019-01-25T19:14:14.500Z,50.97
2019-01-25T19:16:45.164Z,47.33
2019-01-25T19:19:16.224Z,48.57
2019-01-25T19:21:47.209Z,46.00
2019-01-25T19:24:21.257Z,51.83
2019-01-25T19:26:51.933Z,49.23
2019-01-25T19:29:22.820Z,52.47
2019-01-25T19:31:53.967Z,52.30
2019-01-25T19:34:25.237Z,50.17
2019-01-25T19:36:56.288Z,53.13
2019-01-25T19:39:27.473Z,54.23
2019-01-25T19:41:58.307Z,50.37
2019-01-25T19:44:29.377Z,53.00
2019-01-25T19:47:00.089Z,46.87
2019-01-25T19:49:31.845Z,48.00
2019-01-25T19:52:02.541Z,53.90
2019-01-25T19:54:33.367Z,47.83
2019-01-25T19:57:04.207Z,54.73
2019-01-25T19:59:34.885Z,50.50
2019-01-25T20:02:07.101Z,52.00
2019-01-25T20:04:37.762Z,50.00
2019-01-25T20:07:08.713Z,50.90
2019-01-25T20:09:40.353Z,48.63
2019-01-25T20:12:11.088Z,46.93
2019-01-25T20:14:41.809Z,55.60
2019-01-25T20:17:12.492Z,48.60
2019-01-25T20:19:43.367Z,53.03
2019-01-25T20:22:14.535Z,52.50
2019-01-25T20:24:45.735Z,49.43
2019-01-25T20:27:16.376Z,54.30
2019-01-25T20:29:47.349Z,54.63
2019-01-25T20:32:18.008Z,49.33
2019-01-25T20:34:48.848Z,56.57
2019-01-25T20:37:19.532Z,51.23
2019-01-25T20:39:50.379Z,53.23
2019-01-25T20:42:21.129Z,55.37
2019-01-25T20:44:51.812Z,54.77
2019-01-25T20:47:22.942Z,54.90
2019-01-25T20:49:53.719Z,51.50
2019-01-25T20:52:43.803Z,53.53
2019-01-25T20:55:16.966Z,52.10
2019-01-25T20:57:48.119Z,55.50
2019-01-25T21:00:23.580Z,55.80
2019-01-25T21:02:54.311Z,53.30
2019-01-25T21:05:25.046Z,54.63
2019-01-25T21:07:55.695Z,52.40
2019-01-25T21:10:28.037Z,55.00
2019-01-25T21:12:59.247Z,60.53
2019-01-25T21:15:35.063Z,58.83
2019-01-25T21:18:02.825Z,59.20
2019-01-25T21:20:46.142Z,56.17
2019-01-25T21:23:17.029Z,58.93
2019-01-25T21:25:47.814Z,57.20
2019-01-25T21:28:18.906Z,61.53
2019-01-25T21:30:49.897Z,56.93
2019-01-25T21:33:20.596Z,59.57
2019-01-25T21:35:51.262Z,56.87
2019-01-25T21:38:22.643Z,59.17
2019-01-25T21:40:53.314Z,59.50
2019-01-25T21:43:23.970Z,59.37
2019-01-25T21:45:54.686Z,61.30
2019-01-25T21:48:25.406Z,59.70
2019-01-25T21:50:56.166Z,59.57
2019-01-25T21:53:28.723Z,62.10
2019-01-25T21:56:02.486Z,61.53
2019-01-25T21:58:37.419Z,60.40
2019-01-25T22:01:09.072Z,64.00
2019-01-25T22:03:40.870Z,60.17
2019-01-25T22:06:11.548Z,61.20
2019-01-25T22:08:43.090Z,61.43
2019-01-25T22:11:13.882Z,58.47
2019-01-25T22:13:44.609Z,61.00
2019-01-25T22:16:15.796Z,60.13
2019-01-25T22:18:46.622Z,67.50
2019-01-25T22:21:17.522Z,57.53
2019-01-25T22:23:48.196Z,57.03
2019-01-25T22:26:19.394Z,64.40
2019-01-25T22:28:50.260Z,55.17
2019-01-25T22:31:21.703Z,58.47
2019-01-25T22:33:52.947Z,61.37
2019-01-25T22:36:23.664Z,63.63
2019-01-25T22:38:54.575Z,58.60
2019-01-25T22:41:27.117Z,57.10
2019-01-25T22:43:57.950Z,62.73
2019-01-25T22:46:28.771Z,61.87
2019-01-25T22:48:59.806Z,59.00
2019-01-25T22:51:30.899Z,65.13
2019-01-25T22:54:01.880Z,63.30
2019-01-25T22:56:32.757Z,63.70
2019-01-25T22:59:22.947Z,64.43
2019-01-25T23:01:54.166Z,65.23
2019-01-25T23:05:15.978Z,74.40
2019-01-25T23:07:47.914Z,66.40
2019-01-25T23:10:23.689Z,67.83
2019-01-25T23:12:54.352Z,72.23
2019-01-25T23:15:25.079Z,68.30
2019-01-25T23:17:55.804Z,75.00
2019-01-25T23:20:26.527Z,71.50
2019-01-25T23:22:57.251Z,75.73
2019-01-25T23:25:28.167Z,78.00
2019-01-25T23:27:58.817Z,86.53
2019-01-25T23:30:29.508Z,72.30
2019-01-25T23:33:00.180Z,71.03
2019-01-25T23:35:30.968Z,78.60
2019-01-25T23:38:01.695Z,77.27
2019-01-25T23:40:32.353Z,82.37
2019-01-25T23:43:03.018Z,76.07
2019-01-25T23:45:33.648Z,82.03
2019-01-25T23:48:04.440Z,79.33
2019-01-25T23:50:35.120Z,74.17
2019-01-25T23:53:06.778Z,73.83
2019-01-25T23:55:37.450Z,75.47
2019-01-25T23:58:08.121Z,80.47
